Relevés horaires Schaffen (Belgique)


Relevés horaires à Schaffen - Mercredi 16 Juin 2021
Heure UTC1 Température [°C] Vent [km/h] Hum. [%] Pres.4 [hPa] Visi. [Km] Nébu. [octa] Préc.5 [mm] Cond.
2m. Res. Ros. Dir.2 Vit. Moy. Raf.3
23:00 22.8 22.8 16.5 NNO 1.9 -- 3.7 68 1010.2(-0.4/3h) 20 -- -- --
22:00 24.1 24.1 16.6 NNO 1.9 -- 1.9 63 1011(0.4/3h) 20 -- -- --
21:00 24.8 24.8 17.9 NNO 1.9 -- 3.7 66 1011(0.0/3h) 20 2/8 -- --
20:00 26.7 26.7 16.4 NNO 1.9 -- 1.9 53 1010.7(-0.3/3h) 20 2/8 -- --
19:00 27.7 27.7 15.8 NNO 1.9 -- 3.7 48 1010.5(-0.8/3h) 20 2/8 -- --
18:00 29.3 29.3 15.7 NNO 1.9 -- 13.0 44 1010.7(-0.8/3h) 18 -- -- --
17:00 29.4 29.4 15.0 OSO 3.7 -- 9.3 42 1011(-0.9/3h) 20 -- -- --
16:00 29.9 29.9 15.8 SSO 5.6 -- 9.3 43 1011.2(-0.8/3h) 20 -- -- --
15:00 30.1 30.1 15.5 OSO 3.7 -- 13.0 41 1011.7(-1.1/3h) 20 -- -- --
14:00 29.5 29.5 14.9 SO 3.7 -- 13.0 41 1011.8(-1.2/3h) 20 3/8 -- --
13:00 29.3 29.3 14.0 SO 5.6 -- 11.1 39 1012.2(-1.2/3h) 20 3/8 -- --
12:00 27.8 27.8 16.1 SSO 3.7 -- 13.0 49 1012.7(-0.9/3h) 20 3/8 -- --
11:00 27.2 27.2 16.3 S 5.6 -- 9.3 51 1013.2(-0.9/3h) 20 3/8 -- --
10:00 25.8 25.8 16.1 NNO 1.9 -- 5.6 55 1013.5(-1.0/3h) 20 2/8 -- --
09:00 24.4 24.4 15.0 S 5.6 -- 5.6 56 1013.8(-1.2/3h) 20 2/8 -- --
08:00 23.1 23.1 14.0 SE 3.7 -- 5.6 57 1014.2(-1.1/3h) 20 2/8 -- --
07:00 21.5 21.5 12.9 ESE 3.7 -- 5.6 58 1014.6(-1.2/3h) 18 -- -- --
06:00 18.5 18.5 11.3 NNO 1.9 -- 5.6 63 1015.2(-1.0/3h) 20 -- -- --
05:00 15.5 15.5 10.9 NNO 1.9 -- 3.7 74 1015.6(-1.3/3h) 20 -- -- --
04:00 15.6 15.6 10.1 NNO 1.9 -- 3.7 70 1016.1(-1.1/3h) 20 -- -- --
03:00 16.3 16.3 10.1 NNO 1.9 -- 5.6 67 1016.2(-1.2/3h) 20 -- -- --
02:00 17.1 17.1 10.5 NNO 1.9 -- 3.7 65 1016.8(-1.0/3h) 20 -- -- --
01:00 17.4 17.4 10.8 NNO 1.9 -- 5.6 65 1017.2(-1.2/3h) 20 -- -- --
00:00 18.2 18.2 11.2 NNO 1.9 -- 11.1 64 1017.6(-1.2/3h) 20 -- -- --

1 Coordinated Universal Time. Actuellement il est 19:00 locale et 17:00 UTC.

2 Le vent souffle depuis la direction indiquée vers la direction oposée.

3 Les rafales max. sont disponible 40 min après l'heure du relevé.

4 Pour les stations d'altitude (plus de 600m) le géopotentiel du niveau le plus proche de la pression obligatoire est indiqué.

5 Les stations disposant d'un diffuseur peuvent indiquer "trace". Cela signifie que des précipitations ont touchés le sol mais que la quantité est inférieure à 0.1 mm.

Récapitulatif de la journée
Température [°C] Vent [km/h] Ensoleillement4 [h] Precipitations totale5 [mm] Pression [Hpa]
Min1 Max.2 Moy.3 Max. Min Max.
15.3 30.3 0 13.0 0 h 0 min 0 1010.2 1017.6

1 Température minimale relevée entre 18:00 UTC la veille et 18:00 UTC le jour donné.

2 Température maximale relevée entre 06:00 UTC le jour donné et 06:00 UTC le lendemain.

3 Vent moyen de la journée basé sur les relevés horaires.

4 Ensoleillement en heures relevé entre 06:00 UTC la veille et 06:00 UTC le jour donné.

5 Précipitations totales tombées entre 06:00 UTC la jour donné et 06:00 UTC le lendemain.

Graphiques horaires